createdAt,value
2022-12-11T00:02:08.795Z,16.85
2022-12-11T00:04:35.672Z,16.38
2022-12-11T00:07:02.278Z,14.63
2022-12-11T00:09:28.889Z,16.23
2022-12-11T00:11:55.453Z,16.35
2022-12-11T00:14:22.033Z,17.50
2022-12-11T00:16:49.572Z,16.40
2022-12-11T00:19:16.931Z,17.38
2022-12-11T00:21:43.586Z,16.15
2022-12-11T00:24:10.361Z,17.48
2022-12-11T00:26:37.441Z,17.05
2022-12-11T00:29:05.424Z,17.48
2022-12-11T00:31:32.188Z,17.80
2022-12-11T00:33:58.872Z,18.08
2022-12-11T00:36:27.089Z,18.83
2022-12-11T00:38:54.108Z,18.17
2022-12-11T00:41:20.829Z,19.23
2022-12-11T00:43:47.598Z,18.63
2022-12-11T00:46:14.420Z,19.35
2022-12-11T00:48:41.005Z,19.63
2022-12-11T00:51:08.050Z,18.90
2022-12-11T00:53:34.780Z,18.33
2022-12-11T00:56:01.530Z,19.40
2022-12-11T00:58:28.268Z,20.30
2022-12-11T01:00:54.823Z,19.33
2022-12-11T01:03:21.322Z,18.02
2022-12-11T01:05:55.021Z,17.70
2022-12-11T01:08:21.986Z,16.70
2022-12-11T01:10:48.898Z,16.55
2022-12-11T01:13:16.167Z,16.17
2022-12-11T01:15:44.971Z,17.08
2022-12-11T01:20:40.194Z,14.45
2022-12-11T01:23:07.040Z,14.38
2022-12-11T01:25:35.526Z,13.07
2022-12-11T01:28:02.050Z,15.25
2022-12-11T01:30:28.831Z,13.73
2022-12-11T01:32:55.442Z,12.73
2022-12-11T01:35:21.943Z,14.70
2022-12-11T01:37:49.203Z,12.35
2022-12-11T01:40:18.349Z,13.55
2022-12-11T01:42:45.532Z,12.43
2022-12-11T01:45:21.309Z,12.05
2022-12-11T01:47:48.978Z,12.57
2022-12-11T01:50:16.305Z,14.00
2022-12-11T01:52:46.990Z,12.95
2022-12-11T01:55:13.687Z,12.18
2022-12-11T01:57:44.780Z,11.18
2022-12-11T02:00:12.561Z,13.30
2022-12-11T02:02:44.628Z,12.50
2022-12-11T02:05:12.399Z,11.57
2022-12-11T02:07:52.924Z,12.48
2022-12-11T02:10:19.645Z,12.95
2022-12-11T02:12:52.033Z,11.98
2022-12-11T02:15:35.931Z,13.85
2022-12-11T02:18:24.094Z,14.32
2022-12-11T02:20:55.057Z,13.57
2022-12-11T02:23:58.689Z,12.82
2022-12-11T02:26:38.074Z,13.18
2022-12-11T02:29:17.384Z,13.35
2022-12-11T02:31:53.655Z,12.95
2022-12-11T02:34:40.569Z,12.80
2022-12-11T02:37:13.413Z,12.93
2022-12-11T02:39:43.383Z,12.90
2022-12-11T02:42:12.704Z,12.52
2022-12-11T02:44:41.015Z,12.82
2022-12-11T02:47:12.744Z,13.40
2022-12-11T02:49:42.075Z,12.68
2022-12-11T02:52:12.997Z,13.68
2022-12-11T02:54:42.093Z,13.27
2022-12-11T02:57:15.215Z,13.75
2022-12-11T02:59:44.425Z,12.45
2022-12-11T03:02:13.793Z,12.90
2022-12-11T03:04:42.125Z,14.30
2022-12-11T03:07:14.215Z,13.40
2022-12-11T03:09:43.053Z,13.82
2022-12-11T03:12:12.676Z,13.98
2022-12-11T03:14:41.920Z,14.52
2022-12-11T03:17:15.778Z,13.80
2022-12-11T03:19:53.118Z,15.18
2022-12-11T03:23:01.899Z,15.18
2022-12-11T03:26:06.157Z,14.30
2022-12-11T03:28:48.993Z,13.73
2022-12-11T03:31:31.540Z,15.45
2022-12-11T03:34:04.192Z,14.68
2022-12-11T03:36:34.787Z,13.73
2022-12-11T03:39:07.196Z,14.07
2022-12-11T03:41:35.817Z,15.57
2022-12-11T03:44:02.378Z,15.18
2022-12-11T03:46:36.497Z,15.43
2022-12-11T03:49:08.869Z,15.30
2022-12-11T03:51:36.557Z,15.05
2022-12-11T03:54:03.645Z,15.43
2022-12-11T03:56:33.957Z,15.52
2022-12-11T03:59:00.389Z,15.32
2022-12-11T04:01:27.578Z,15.75
2022-12-11T04:03:54.236Z,16.38
2022-12-11T04:06:20.678Z,14.60
2022-12-11T04:08:47.328Z,15.70
2022-12-11T04:11:32.627Z,14.95
2022-12-11T04:14:18.092Z,16.10
2022-12-11T04:16:44.538Z,15.27
2022-12-11T04:19:30.773Z,17.00
2022-12-11T04:22:15.869Z,15.48
2022-12-11T04:24:42.293Z,15.35
2022-12-11T04:27:08.730Z,16.67
2022-12-11T04:29:35.194Z,14.57
2022-12-11T04:32:01.877Z,15.50
2022-12-11T04:34:28.402Z,16.83
2022-12-11T04:36:54.926Z,16.85
2022-12-11T04:39:21.548Z,17.58
2022-12-11T04:41:48.096Z,16.92
2022-12-11T04:44:14.585Z,14.82
2022-12-11T04:46:41.084Z,16.05
2022-12-11T04:49:07.520Z,15.88
2022-12-11T04:51:34.137Z,16.00
2022-12-11T04:54:00.566Z,16.58
2022-12-11T04:56:27.337Z,15.40
2022-12-11T04:58:53.820Z,15.40
2022-12-11T05:01:22.411Z,16.73
2022-12-11T05:06:16.227Z,14.38
2022-12-11T05:08:43.893Z,13.90
2022-12-11T05:11:13.164Z,13.82
2022-12-11T05:13:39.806Z,15.27
2022-12-11T05:16:09.139Z,14.73
2022-12-11T05:18:35.835Z,14.38
2022-12-11T05:21:06.352Z,14.30
2022-12-11T05:23:33.618Z,12.73
2022-12-11T05:26:05.506Z,13.20
2022-12-11T05:28:34.370Z,13.32
2022-12-11T05:31:03.928Z,13.70
2022-12-11T05:33:31.142Z,14.35
2022-12-11T05:35:57.683Z,13.35
2022-12-11T05:38:24.193Z,13.80
2022-12-11T05:41:02.218Z,13.80
2022-12-11T05:43:32.085Z,13.40
2022-12-11T05:46:09.459Z,13.73
2022-12-11T05:48:37.387Z,12.55
2022-12-11T05:51:04.911Z,13.52
2022-12-11T05:53:32.015Z,13.30
2022-12-11T05:56:19.835Z,13.32
2022-12-11T05:58:49.945Z,12.60
2022-12-11T06:01:20.324Z,11.90
2022-12-11T06:03:47.061Z,12.95
2022-12-11T06:06:13.729Z,14.35
2022-12-11T06:08:40.393Z,13.00
2022-12-11T06:11:07.425Z,14.43
2022-12-11T06:13:34.180Z,12.73
2022-12-11T06:16:05.966Z,14.55
2022-12-11T06:18:36.941Z,13.68
2022-12-11T06:21:45.842Z,12.63
2022-12-11T06:24:12.814Z,12.43
2022-12-11T06:26:39.267Z,14.00
2022-12-11T06:29:09.225Z,13.02
2022-12-11T06:31:39.212Z,12.88
2022-12-11T06:34:05.958Z,14.15
2022-12-11T06:36:32.393Z,13.75
2022-12-11T06:38:59.173Z,13.30
2022-12-11T06:41:25.863Z,13.82
2022-12-11T06:43:52.346Z,13.40
2022-12-11T06:46:19.911Z,13.30
2022-12-11T06:48:47.297Z,13.63
2022-12-11T06:51:16.573Z,12.57
2022-12-11T06:53:44.114Z,14.45
2022-12-11T06:56:13.960Z,12.55
2022-12-11T06:58:41.641Z,13.40
2022-12-11T07:01:22.971Z,13.40
2022-12-11T07:03:53.615Z,13.60
2022-12-11T07:06:20.152Z,12.85
2022-12-11T07:08:46.542Z,13.00
2022-12-11T07:11:15.242Z,13.52
2022-12-11T07:13:42.265Z,12.68
2022-12-11T07:16:10.999Z,12.57
2022-12-11T07:18:39.118Z,12.57
2022-12-11T07:21:06.765Z,12.82
2022-12-11T07:23:34.555Z,12.10
2022-12-11T07:26:06.192Z,11.85
2022-12-11T07:28:33.157Z,14.00
2022-12-11T07:30:59.731Z,11.95
2022-12-11T07:33:26.337Z,12.40
2022-12-11T07:35:52.795Z,12.52
2022-12-11T07:38:19.265Z,12.90
2022-12-11T07:40:45.897Z,11.98
2022-12-11T07:43:12.274Z,12.40
2022-12-11T07:45:39.622Z,11.90
2022-12-11T07:48:06.312Z,11.85
2022-12-11T07:50:36.613Z,12.15
2022-12-11T07:53:06.160Z,11.52
2022-12-11T07:55:32.571Z,12.10
2022-12-11T07:57:59.000Z,11.48
2022-12-11T08:00:25.625Z,11.63
2022-12-11T08:02:52.242Z,12.27
2022-12-11T08:05:18.654Z,13.00
2022-12-11T08:07:45.256Z,12.20
2022-12-11T08:10:11.874Z,12.00
2022-12-11T08:12:38.300Z,11.30
2022-12-11T08:15:05.284Z,13.32
2022-12-11T08:17:35.288Z,11.80
2022-12-11T08:20:06.557Z,11.65
2022-12-11T08:22:34.041Z,11.68
2022-12-11T08:25:00.750Z,12.82
2022-12-11T08:27:28.005Z,11.75
2022-12-11T08:29:54.794Z,12.60
2022-12-11T08:32:21.242Z,12.05
2022-12-11T08:34:51.808Z,11.80
2022-12-11T08:37:18.243Z,12.60
2022-12-11T08:39:46.838Z,11.10
2022-12-11T08:42:13.461Z,11.20
2022-12-11T08:44:41.629Z,10.88
2022-12-11T08:47:10.122Z,11.38
2022-12-11T08:49:36.669Z,11.75
2022-12-11T08:52:04.784Z,10.32
2022-12-11T08:54:31.458Z,11.18
2022-12-11T08:56:58.395Z,11.50
2022-12-11T08:59:25.800Z,11.10
2022-12-11T09:01:52.477Z,11.40
2022-12-11T09:04:19.114Z,10.98
2022-12-11T09:06:45.725Z,10.48
2022-12-11T09:09:12.686Z,10.38
2022-12-11T09:11:39.160Z,10.55
2022-12-11T09:14:07.847Z,9.95
2022-12-11T09:16:37.824Z,10.80
2022-12-11T09:19:06.591Z,10.02
2022-12-11T09:21:33.106Z,9.93
2022-12-11T09:24:01.079Z,10.07
2022-12-11T09:26:29.235Z,10.02
2022-12-11T09:28:55.895Z,10.60
2022-12-11T09:31:26.970Z,10.40
2022-12-11T09:34:01.213Z,10.07
2022-12-11T09:36:28.724Z,10.07
2022-12-11T09:38:55.512Z,11.07
2022-12-11T09:41:22.101Z,10.07
2022-12-11T09:43:52.349Z,9.35
2022-12-11T09:46:23.543Z,10.25
2022-12-11T09:48:53.603Z,9.45
2022-12-11T09:51:30.740Z,12.02
2022-12-11T09:54:01.649Z,10.70
2022-12-11T09:56:41.918Z,10.80
2022-12-11T09:59:51.211Z,9.40
2022-12-11T10:02:42.335Z,9.63
2022-12-11T10:05:43.910Z,9.07
2022-12-11T10:08:45.154Z,10.32
2022-12-11T10:11:39.986Z,9.00
2022-12-11T10:14:24.820Z,9.38
2022-12-11T10:16:57.093Z,9.15
2022-12-11T10:19:30.131Z,9.73
2022-12-11T10:21:59.686Z,9.48
2022-12-11T10:25:10.547Z,8.90
2022-12-11T10:27:39.666Z,8.90
2022-12-11T10:30:22.683Z,8.57
2022-12-11T10:32:53.617Z,8.65
2022-12-11T10:35:29.497Z,7.70
2022-12-11T10:38:09.527Z,9.85
2022-12-11T10:40:38.593Z,8.60
2022-12-11T10:43:05.415Z,4.45
2022-12-11T10:45:32.029Z,6.93
2022-12-11T10:48:11.316Z,9.82
2022-12-11T10:50:38.203Z,10.05
2022-12-11T10:53:05.655Z,10.07
2022-12-11T10:55:45.217Z,9.23
2022-12-11T10:58:17.880Z,9.75
2022-12-11T11:00:45.426Z,10.75
2022-12-11T11:03:43.922Z,9.73
2022-12-11T11:06:17.713Z,10.02
2022-12-11T11:08:56.322Z,10.48
2022-12-11T11:11:33.924Z,10.98
2022-12-11T11:14:05.463Z,9.20
2022-12-11T11:16:35.328Z,9.95
2022-12-11T11:19:02.039Z,9.75
2022-12-11T11:21:30.222Z,10.30
2022-12-11T11:23:56.792Z,9.90
2022-12-11T11:26:30.775Z,8.65
2022-12-11T11:29:32.407Z,8.43
2022-12-11T11:32:15.879Z,9.73
2022-12-11T11:34:43.137Z,8.52
2022-12-11T11:37:23.756Z,8.73
2022-12-11T11:39:55.522Z,8.30
2022-12-11T11:43:15.716Z,9.50
2022-12-11T11:46:14.952Z,8.88
2022-12-11T11:48:56.569Z,9.13
2022-12-11T11:51:46.433Z,8.55
2022-12-11T11:54:35.664Z,10.32
2022-12-11T11:57:13.750Z,9.27
2022-12-11T11:59:45.710Z,9.63
2022-12-11T12:02:17.785Z,9.30
2022-12-11T12:04:45.813Z,9.15
2022-12-11T12:07:32.236Z,9.13
2022-12-11T12:10:22.199Z,9.48
2022-12-11T12:13:47.580Z,9.63
2022-12-11T12:16:02.617Z,10.18
2022-12-11T12:18:45.800Z,11.05
2022-12-11T12:21:34.968Z,9.30
2022-12-11T12:24:23.060Z,10.57
2022-12-11T12:27:50.027Z,10.98
2022-12-11T12:30:08.548Z,10.35
2022-12-11T12:32:52.976Z,10.35
2022-12-11T12:35:29.881Z,11.98
2022-12-11T12:38:15.410Z,10.80
2022-12-11T12:41:15.584Z,12.13
2022-12-11T12:43:47.719Z,11.13
2022-12-11T12:46:40.847Z,11.15
2022-12-11T12:49:12.668Z,11.20
2022-12-11T12:51:41.265Z,11.80
2022-12-11T12:54:12.496Z,12.48
2022-12-11T12:56:40.661Z,11.38
2022-12-11T12:59:20.210Z,12.52
2022-12-11T13:01:52.119Z,11.18
2022-12-11T13:04:54.905Z,11.75
2022-12-11T13:07:29.541Z,11.00
2022-12-11T13:10:21.716Z,10.10
2022-12-11T13:12:48.915Z,10.88
2022-12-11T13:15:38.951Z,10.57
2022-12-11T13:18:36.442Z,10.95
2022-12-11T13:21:25.157Z,11.25
2022-12-11T13:23:52.146Z,10.57
2022-12-11T13:26:33.197Z,10.48
2022-12-11T13:28:59.772Z,10.82
2022-12-11T13:31:33.905Z,11.15
2022-12-11T13:34:24.423Z,10.32
2022-12-11T13:36:53.206Z,11.55
2022-12-11T13:39:27.761Z,10.27
2022-12-11T13:41:59.849Z,11.23
2022-12-11T13:44:33.543Z,11.98
2022-12-11T13:47:03.023Z,13.15
2022-12-11T13:49:35.636Z,11.18
2022-12-11T13:52:03.319Z,13.40
2022-12-11T13:54:32.451Z,13.05
2022-12-11T13:57:00.653Z,12.35
2022-12-11T13:59:35.579Z,10.93
2022-12-11T14:02:15.340Z,10.93
2022-12-11T14:04:42.356Z,10.88
2022-12-11T14:07:10.739Z,10.35
2022-12-11T14:09:43.428Z,10.55
2022-12-11T14:12:18.169Z,10.63
2022-12-11T14:14:51.070Z,10.98
2022-12-11T14:17:37.830Z,10.38
2022-12-11T14:20:09.261Z,10.23
2022-12-11T14:22:35.954Z,10.77
2022-12-11T14:25:16.761Z,11.07
2022-12-11T14:27:52.242Z,11.13
2022-12-11T14:30:25.160Z,11.30
2022-12-11T14:32:56.779Z,11.10
2022-12-11T14:35:31.776Z,10.65
2022-12-11T14:38:08.977Z,9.88
2022-12-11T14:40:41.630Z,10.25
2022-12-11T14:43:14.895Z,10.65
2022-12-11T14:45:46.804Z,11.75
2022-12-11T14:48:27.011Z,11.02
2022-12-11T14:50:57.824Z,11.18
2022-12-11T14:53:46.472Z,10.65
2022-12-11T14:56:26.223Z,11.48
2022-12-11T14:59:02.979Z,11.75
2022-12-11T15:01:32.740Z,10.05
2022-12-11T15:04:05.987Z,11.65
2022-12-11T15:06:36.115Z,11.43
2022-12-11T15:09:29.780Z,11.00
2022-12-11T15:12:07.225Z,10.52
2022-12-11T15:14:34.177Z,11.20
2022-12-11T15:17:01.055Z,10.98
2022-12-11T15:19:31.282Z,11.60
2022-12-11T15:22:03.672Z,11.50
2022-12-11T15:24:43.711Z,11.65
2022-12-11T15:27:28.853Z,11.20
2022-12-11T15:29:55.535Z,11.80
2022-12-11T15:32:23.291Z,12.23
2022-12-11T15:34:53.093Z,11.88
2022-12-11T15:37:32.036Z,12.15
2022-12-11T15:40:00.558Z,10.82
2022-12-11T15:42:41.426Z,10.95
2022-12-11T15:45:17.431Z,12.27
2022-12-11T15:47:44.583Z,13.00
2022-12-11T15:50:19.618Z,13.45
2022-12-11T15:52:46.662Z,13.45
2022-12-11T15:55:13.909Z,12.82
2022-12-11T15:57:46.267Z,12.68
2022-12-11T16:00:18.752Z,11.82
2022-12-11T16:02:46.340Z,12.40
2022-12-11T16:05:13.099Z,12.73
2022-12-11T16:07:40.073Z,12.68
2022-12-11T16:10:07.769Z,12.18
2022-12-11T16:12:34.180Z,12.43
2022-12-11T16:15:00.631Z,13.57
2022-12-11T16:17:27.095Z,12.77
2022-12-11T16:19:54.041Z,13.75
2022-12-11T16:22:20.747Z,12.75
2022-12-11T16:24:47.448Z,12.98
2022-12-11T16:27:17.354Z,13.00
2022-12-11T16:29:46.639Z,12.98
2022-12-11T16:32:13.301Z,12.90
2022-12-11T16:34:39.703Z,13.15
2022-12-11T16:37:07.285Z,13.50
2022-12-11T16:39:35.145Z,12.32
2022-12-11T16:42:01.552Z,12.30
2022-12-11T16:44:28.184Z,13.73
2022-12-11T16:46:55.228Z,13.18
2022-12-11T16:49:22.590Z,13.40
2022-12-11T16:51:50.318Z,12.93
2022-12-11T16:54:17.591Z,12.68
2022-12-11T16:56:45.013Z,13.10
2022-12-11T16:59:12.735Z,12.68
2022-12-11T17:01:39.448Z,12.45
2022-12-11T17:04:06.199Z,13.10
2022-12-11T17:06:33.372Z,12.85
2022-12-11T17:08:59.803Z,11.48
2022-12-11T17:11:26.995Z,11.73
2022-12-11T17:13:58.302Z,12.82
2022-12-11T17:16:26.398Z,12.45
2022-12-11T17:18:53.544Z,12.02
2022-12-11T17:21:22.290Z,12.38
2022-12-11T17:26:16.514Z,11.38
2022-12-11T17:28:43.109Z,11.02
2022-12-11T17:31:13.866Z,11.60
2022-12-11T17:33:40.624Z,11.77
2022-12-11T17:36:08.114Z,11.18
2022-12-11T17:38:34.616Z,13.57
2022-12-11T17:41:05.886Z,13.70
2022-12-11T17:43:32.482Z,12.68
2022-12-11T17:45:58.936Z,11.75
2022-12-11T17:48:25.395Z,12.00
2022-12-11T17:50:52.537Z,11.18
2022-12-11T17:53:20.091Z,11.25
2022-12-11T17:55:47.676Z,13.70
2022-12-11T17:58:17.035Z,14.95
2022-12-11T18:00:45.924Z,15.48
2022-12-11T18:03:13.105Z,13.85
2022-12-11T18:05:49.481Z,12.85
2022-12-11T18:08:21.075Z,12.63
2022-12-11T18:10:48.214Z,12.35
2022-12-11T18:13:14.910Z,11.90
2022-12-11T18:15:41.849Z,11.98
2022-12-11T18:18:09.372Z,11.32
2022-12-11T18:20:37.307Z,11.70
2022-12-11T18:23:04.974Z,11.10
2022-12-11T18:25:32.331Z,11.68
2022-12-11T18:27:59.683Z,11.63
2022-12-11T18:30:26.271Z,11.10
2022-12-11T18:32:52.719Z,11.13
2022-12-11T18:35:19.453Z,11.20
2022-12-11T18:37:46.195Z,10.70
2022-12-11T18:40:12.679Z,10.90
2022-12-11T18:42:39.323Z,11.20
2022-12-11T18:45:06.869Z,9.95
2022-12-11T18:47:33.412Z,11.85
2022-12-11T18:50:05.569Z,12.15
2022-12-11T18:52:33.707Z,11.15
2022-12-11T18:55:00.139Z,12.32
2022-12-11T18:57:26.929Z,13.57
2022-12-11T18:59:53.742Z,12.90
2022-12-11T19:02:20.946Z,12.73
2022-12-11T19:04:47.588Z,11.50
2022-12-11T19:07:14.296Z,11.60
2022-12-11T19:09:46.219Z,12.27
2022-12-11T19:12:15.884Z,12.90
2022-12-11T19:14:42.485Z,11.70
2022-12-11T19:17:08.929Z,12.75
2022-12-11T19:19:35.897Z,12.15
2022-12-11T19:22:03.035Z,11.73
2022-12-11T19:24:30.067Z,12.27
2022-12-11T19:26:56.573Z,12.75
2022-12-11T19:29:29.179Z,12.35
2022-12-11T19:31:56.449Z,12.60
2022-12-11T19:34:23.586Z,13.13
2022-12-11T19:36:50.828Z,13.48
2022-12-11T19:39:17.665Z,13.52
2022-12-11T19:41:44.123Z,13.35
2022-12-11T19:44:10.606Z,13.50
2022-12-11T19:46:38.079Z,13.98
2022-12-11T19:49:04.732Z,14.07
2022-12-11T19:51:33.608Z,14.48
2022-12-11T19:54:02.887Z,14.02
2022-12-11T19:56:29.880Z,14.07
2022-12-11T19:58:57.371Z,14.25
2022-12-11T20:01:28.945Z,14.18
2022-12-11T20:03:58.425Z,13.88
2022-12-11T20:06:29.695Z,13.52
2022-12-11T20:08:56.283Z,13.68
2022-12-11T20:11:22.956Z,14.20
2022-12-11T20:13:50.605Z,14.13
2022-12-11T20:16:33.390Z,13.68
2022-12-11T20:19:08.257Z,12.52
2022-12-11T20:21:34.902Z,12.48
2022-12-11T20:24:01.558Z,13.05
2022-12-11T20:26:30.025Z,13.70
2022-12-11T20:28:57.119Z,12.85
2022-12-11T20:31:25.668Z,14.75
2022-12-11T20:33:53.574Z,13.95
2022-12-11T20:36:22.339Z,14.15
2022-12-11T20:41:18.926Z,13.57
2022-12-11T20:43:45.927Z,12.50
2022-12-11T20:46:14.800Z,13.90
2022-12-11T20:48:42.633Z,14.05
2022-12-11T20:51:12.133Z,14.55
2022-12-11T20:53:39.083Z,13.68
2022-12-11T20:56:14.177Z,13.43
2022-12-11T20:58:41.029Z,13.73
2022-12-11T21:01:07.887Z,14.13
2022-12-11T21:03:40.444Z,16.55
2022-12-11T21:06:09.530Z,15.55
2022-12-11T21:08:35.978Z,13.38
2022-12-11T21:11:06.273Z,14.23
2022-12-11T21:13:32.952Z,13.13
2022-12-11T21:16:04.958Z,13.20
2022-12-11T21:18:31.541Z,13.27
2022-12-11T21:20:59.126Z,14.57
2022-12-11T21:23:26.267Z,14.20
2022-12-11T21:25:53.314Z,13.98
2022-12-11T21:28:20.448Z,14.25
2022-12-11T21:30:47.543Z,15.90
2022-12-11T21:33:14.347Z,16.48
2022-12-11T21:35:40.779Z,15.20
2022-12-11T21:38:07.226Z,14.45
2022-12-11T21:40:34.073Z,14.73
2022-12-11T21:43:00.596Z,14.50
2022-12-11T21:48:13.800Z,13.40
2022-12-11T21:50:41.718Z,13.73
2022-12-11T21:53:08.260Z,14.25
2022-12-11T21:55:34.664Z,13.65
2022-12-11T21:58:01.054Z,14.00
2022-12-11T22:00:28.379Z,15.18
2022-12-11T22:02:54.902Z,13.38
2022-12-11T22:05:21.599Z,13.30
2022-12-11T22:07:48.188Z,13.65
2022-12-11T22:10:14.905Z,14.02
2022-12-11T22:12:41.456Z,14.60
2022-12-11T22:15:08.736Z,13.30
2022-12-11T22:17:37.082Z,13.85
2022-12-11T22:20:05.336Z,14.30
2022-12-11T22:22:32.066Z,14.13
2022-12-11T22:24:58.833Z,14.32
2022-12-11T22:27:25.266Z,12.98
2022-12-11T22:29:53.695Z,13.95
2022-12-11T22:32:20.141Z,12.65
2022-12-11T22:34:46.741Z,13.48
2022-12-11T22:37:13.186Z,12.70
2022-12-11T22:39:39.776Z,14.40
2022-12-11T22:42:06.320Z,13.50
2022-12-11T22:44:32.826Z,13.80
2022-12-11T22:46:59.565Z,13.32
2022-12-11T22:49:25.985Z,12.80
2022-12-11T22:51:52.597Z,13.57
2022-12-11T22:54:19.197Z,13.23
2022-12-11T22:56:45.961Z,14.38
2022-12-11T22:59:12.554Z,13.15
2022-12-11T23:01:39.328Z,12.98
2022-12-11T23:04:06.261Z,13.32
2022-12-11T23:06:32.700Z,13.38
2022-12-11T23:09:00.399Z,14.50
2022-12-11T23:11:34.941Z,13.77
2022-12-11T23:14:02.521Z,12.93
2022-12-11T23:16:29.440Z,14.48
2022-12-11T23:18:58.221Z,14.48
2022-12-11T23:23:52.057Z,15.15
2022-12-11T23:26:20.593Z,14.80
2022-12-11T23:28:48.103Z,13.73
2022-12-11T23:31:15.286Z,13.77
2022-12-11T23:33:42.109Z,13.70
2022-12-11T23:36:08.953Z,14.98
2022-12-11T23:38:35.847Z,14.80
2022-12-11T23:41:03.605Z,15.02
2022-12-11T23:43:30.108Z,14.18
2022-12-11T23:45:57.761Z,15.15
2022-12-11T23:48:24.545Z,13.63
2022-12-11T23:50:51.386Z,14.05
2022-12-11T23:53:17.845Z,15.52
2022-12-11T23:55:45.074Z,14.18
2022-12-11T23:58:11.847Z,13.98
